Time;durP1;ratioP1;P1;durP2;ratioP2;P2;SDS_P1;SDS_P2;PMS_P1;PMS_P2;Temp;Humidity;BMP_temperature;BMP_pressure;BME280_temperature;BME280_humidity;BME280_pressure;Samples;Min_cycle;Max_cycle;Signal;HPM_P1;HPM_P2
2022/06/04 00:02:13;;;;;;;12.95;11.70;;;;;;;17.79;100.00;99377.91;5114081;28;20630;-82
2022/06/04 00:04:40;;;;;;;13.55;12.25;;;;;;;17.80;100.00;99372.31;5113590;28;20194;-82
2022/06/04 00:07:08;;;;;;;13.85;12.43;;;;;;;17.81;100.00;99365.00;5113751;28;20628;-82
2022/06/04 00:09:35;;;;;;;16.48;12.68;;;;;;;17.71;100.00;99357.69;5113498;28;20280;-82
2022/06/04 00:17:34;;;;;;;14.38;12.88;;;;;;;17.77;100.00;99378.03;5113477;28;20783;-83
2022/06/04 00:20:02;;;;;;;14.57;13.18;;;;;;;17.59;100.00;99383.31;5113318;28;20568;-83
2022/06/04 00:22:30;;;;;;;12.35;11.25;;;;;;;17.62;100.00;99393.91;5112446;28;20286;-82
2022/06/04 00:24:57;;;;;;;16.30;14.07;;;;;;;17.75;100.00;99398.25;5113149;28;20205;-81
2022/06/04 00:27:23;;;;;;;15.02;13.43;;;;;;;17.93;100.00;99388.41;5113172;28;20280;-81
2022/06/04 00:29:50;;;;;;;17.90;14.10;;;;;;;18.01;100.00;99374.94;5112838;28;20255;-82
2022/06/04 00:32:18;;;;;;;14.48;13.15;;;;;;;17.93;100.00;99374.78;5112917;28;20275;-82
2022/06/04 00:34:44;;;;;;;14.50;12.07;;;;;;;17.80;100.00;99379.63;5113235;28;20187;-82
2022/06/04 00:37:11;;;;;;;13.43;12.13;;;;;;;17.77;100.00;99374.44;5112611;28;20290;-82
2022/06/04 00:39:40;;;;;;;14.48;13.07;;;;;;;17.76;100.00;99376.31;5112913;28;20274;-81
2022/06/04 00:42:10;;;;;;;13.00;11.70;;;;;;;17.71;100.00;99393.09;5112960;28;20553;-82
2022/06/04 00:45:13;;;;;;;15.07;13.57;;;;;;;17.45;100.00;99397.28;5112671;28;20188;-81
2022/06/04 00:47:41;;;;;;;13.50;12.20;;;;;;;17.39;100.00;99400.56;5112888;28;20259;-81
2022/06/04 00:50:09;;;;;;;14.00;12.50;;;;;;;17.39;100.00;99408.72;5112928;28;20600;-82
2022/06/04 00:52:36;;;;;;;16.58;13.75;;;;;;;17.45;100.00;99410.91;5112390;28;20670;-81
2022/06/04 00:55:07;;;;;;;13.77;12.35;;;;;;;17.36;100.00;99403.56;5112324;28;20201;-82
2022/06/04 00:58:03;;;;;;;15.65;14.15;;;;;;;17.22;100.00;99391.19;5112146;28;20227;-81
2022/06/04 01:00:35;;;;;;;12.30;11.10;;;;;;;17.14;100.00;99389.19;5112692;28;20214;-81
2022/06/04 01:03:29;;;;;;;13.05;11.85;;;;;;;17.03;100.00;99381.97;5112826;28;20734;-81
2022/06/04 01:06:22;;;;;;;14.60;13.10;;;;;;;16.90;100.00;99375.03;5112714;28;20690;-81
2022/06/04 01:09:25;;;;;;;14.20;12.90;;;;;;;16.92;100.00;99371.16;5112138;28;20189;-82
2022/06/04 01:12:11;;;;;;;14.43;13.13;;;;;;;16.86;100.00;99366.25;5102319;28;20207;-82
2022/06/04 01:14:52;;;;;;;14.75;13.20;;;;;;;16.88;100.00;99361.53;5112597;28;20207;-81
2022/06/04 01:17:30;;;;;;;15.25;13.75;;;;;;;17.11;100.00;99361.38;5111839;28;20654;-82
2022/06/04 01:20:06;;;;;;;13.63;12.27;;;;;;;17.34;100.00;99357.44;5092206;28;20213;-82
2022/06/04 01:23:07;;;;;;;14.23;12.93;;;;;;;17.36;100.00;99351.88;5092218;28;20750;-82
2022/06/04 01:25:47;;;;;;;14.18;12.88;;;;;;;17.36;100.00;99357.31;5092198;28;20651;-82
2022/06/04 01:28:17;;;;;;;14.77;13.35;;;;;;;17.39;100.00;99354.28;5108427;28;20568;-82
2022/06/04 01:30:47;;;;;;;19.52;17.35;;;;;;;17.43;100.00;99350.31;5112577;28;20199;-82
2022/06/04 01:33:20;;;;;;;15.68;14.07;;;;;;;17.49;100.00;99360.66;5112952;28;20203;-82
2022/06/04 01:35:52;;;;;;;14.65;12.82;;;;;;;17.47;100.00;99359.91;5116796;28;20181;-82
2022/06/04 01:38:24;;;;;;;14.18;12.68;;;;;;;17.44;100.00;99362.94;5116864;28;20180;-82
2022/06/04 01:41:06;;;;;;;15.38;12.18;;;;;;;17.45;100.00;99349.16;5116606;28;20193;-82
2022/06/04 01:43:40;;;;;;;13.55;12.35;;;;;;;17.35;100.00;99353.72;5115785;28;20205;-81
2022/06/04 01:46:13;;;;;;;14.30;13.00;;;;;;;17.30;100.00;99365.03;5116300;28;20583;-80
2022/06/04 01:48:44;;;;;;;14.05;12.65;;;;;;;17.28;100.00;99358.00;5115917;28;20201;-81
2022/06/04 01:51:13;;;;;;;13.13;11.88;;;;;;;17.14;100.00;99359.25;5116454;28;20641;-82
2022/06/04 01:53:42;;;;;;;15.35;13.85;;;;;;;17.26;100.00;99355.41;5116436;28;20196;-81
2022/06/04 01:56:14;;;;;;;16.50;14.10;;;;;;;17.33;100.00;99353.00;5116363;27;20647;-82
2022/06/04 01:58:48;;;;;;;14.57;13.15;;;;;;;17.42;100.00;99352.16;5116294;28;20233;-81
2022/06/04 02:01:18;;;;;;;13.57;12.27;;;;;;;17.36;100.00;99335.53;5116159;28;20282;-82
2022/06/04 02:03:49;;;;;;;14.57;13.27;;;;;;;17.27;100.00;99343.53;5115083;28;20205;-82
2022/06/04 02:06:20;;;;;;;15.52;14.13;;;;;;;17.34;100.00;99345.69;5116005;28;20691;-82
2022/06/04 02:08:49;;;;;;;14.75;13.30;;;;;;;17.21;100.00;99335.09;5116537;28;20233;-82
2022/06/04 02:11:18;;;;;;;15.20;13.80;;;;;;;17.03;100.00;99341.16;5116191;28;20649;-81
2022/06/04 02:13:49;;;;;;;14.25;12.80;;;;;;;16.95;100.00;99334.66;5116335;28;20269;-82
2022/06/04 02:16:21;;;;;;;14.27;12.88;;;;;;;16.80;100.00;99336.88;5115772;28;20241;-81
2022/06/04 02:18:49;;;;;;;13.40;12.10;;;;;;;16.67;100.00;99337.09;5115988;28;20181;-83
2022/06/04 02:21:18;;;;;;;14.70;12.10;;;;;;;16.82;100.00;99343.94;5104255;28;20280;-83
2022/06/04 02:23:45;;;;;;;13.50;12.27;;;;;;;16.94;100.00;99333.81;5095372;28;20229;-82
2022/06/04 02:26:12;;;;;;;13.23;12.02;;;;;;;16.83;100.00;99323.03;5101152;28;20203;-82
2022/06/04 02:28:39;;;;;;;13.57;12.27;;;;;;;16.71;100.00;99330.38;5115807;28;20207;-82
2022/06/04 02:31:13;;;;;;;14.48;13.05;;;;;;;16.64;100.00;99331.91;5115788;28;20259;-82
2022/06/04 02:33:52;;;;;;;14.35;12.95;;;;;;;16.76;100.00;99333.56;5115622;28;20914;-82
2022/06/04 02:36:31;;;;;;;12.68;11.38;;;;;;;16.89;100.00;99333.34;5115380;28;20599;-83
2022/06/04 02:39:05;;;;;;;13.02;11.82;;;;;;;16.90;100.00;99326.06;5094880;28;20221;-80
2022/06/04 02:41:36;;;;;;;13.93;12.50;;;;;;;16.87;100.00;99330.78;5095517;28;20272;-82
2022/06/04 02:44:08;;;;;;;13.68;12.35;;;;;;;16.99;100.00;99341.56;5114398;28;20297;-81
2022/06/04 02:46:41;;;;;;;14.55;13.05;;;;;;;17.11;100.00;99347.75;5114083;28;20186;-82
2022/06/04 02:49:13;;;;;;;12.98;11.77;;;;;;;16.85;100.00;99340.94;5115133;28;20195;-83
2022/06/04 02:51:44;;;;;;;14.25;12.77;;;;;;;16.71;100.00;99343.97;5114777;28;20196;-82
2022/06/04 02:54:15;;;;;;;13.77;12.48;;;;;;;16.67;100.00;99353.41;5115113;28;20190;-83
2022/06/04 02:56:45;;;;;;;15.20;13.40;;;;;;;16.66;100.00;99336.22;5114732;28;20272;-83
2022/06/04 02:59:16;;;;;;;13.90;12.57;;;;;;;16.59;100.00;99345.88;5114956;28;20189;-83
2022/06/04 03:01:48;;;;;;;15.18;13.63;;;;;;;16.57;100.00;99341.59;5115325;27;20192;-82
2022/06/04 03:04:15;;;;;;;12.73;11.52;;;;;;;16.60;100.00;99344.06;5115137;28;20295;-82
2022/06/04 03:06:41;;;;;;;13.13;11.93;;;;;;;16.61;100.00;99333.03;5114995;28;20189;-82
2022/06/04 03:09:11;;;;;;;14.32;12.80;;;;;;;16.53;100.00;99338.28;5115180;28;20290;-82
2022/06/04 03:11:43;;;;;;;12.23;11.00;;;;;;;16.55;100.00;99347.19;5114419;28;20279;-81
2022/06/04 03:14:09;;;;;;;14.38;12.27;;;;;;;16.49;100.00;99358.56;5114802;28;20187;-81
2022/06/04 03:16:38;;;;;;;12.43;11.32;;;;;;;16.48;100.00;99356.81;5114468;27;20336;-82
2022/06/04 03:19:08;;;;;;;12.75;11.65;;;;;;;16.59;100.00;99361.34;5114484;28;20231;-82
2022/06/04 03:21:35;;;;;;;13.20;11.82;;;;;;;16.42;100.00;99360.94;5113941;28;20197;-80
2022/06/04 03:24:02;;;;;;;13.45;12.25;;;;;;;16.38;100.00;99359.50;5114444;28;20211;-81
2022/06/04 03:26:28;;;;;;;14.18;12.68;;;;;;;16.28;100.00;99355.84;5114444;28;20180;-81
2022/06/04 03:28:55;;;;;;;12.98;11.88;;;;;;;16.24;100.00;99363.41;5114414;28;20357;-80
2022/06/04 03:31:22;;;;;;;17.70;12.88;;;;;;;16.20;100.00;99372.78;5113932;28;20274;-82
2022/06/04 03:33:49;;;;;;;14.55;13.05;;;;;;;16.26;100.00;99372.28;5113811;28;20286;-81
2022/06/04 03:36:17;;;;;;;14.27;12.77;;;;;;;16.40;100.00;99373.81;5114361;27;20187;-81
2022/06/04 03:38:44;;;;;;;13.23;12.00;;;;;;;16.35;100.00;99376.06;5113563;28;20705;-82
2022/06/04 03:41:11;;;;;;;14.63;13.23;;;;;;;16.42;100.00;99376.41;5114619;28;20259;-81
2022/06/04 03:43:37;;;;;;;13.15;11.75;;;;;;;16.45;100.00;99374.25;5113581;28;20291;-82
2022/06/04 03:46:04;;;;;;;13.98;12.55;;;;;;;16.43;100.00;99364.53;5113675;28;20222;-81
2022/06/04 03:48:31;;;;;;;13.30;12.05;;;;;;;16.41;100.00;99355.66;5113713;28;20184;-82
2022/06/04 03:50:57;;;;;;;12.68;11.40;;;;;;;16.36;100.00;99363.34;5113751;28;20279;-82
2022/06/04 03:53:25;;;;;;;13.13;11.93;;;;;;;16.49;100.00;99372.16;5113684;28;20289;-82
2022/06/04 03:55:52;;;;;;;12.15;11.05;;;;;;;16.57;100.00;99368.75;5113621;27;20199;-81
2022/06/04 03:58:19;;;;;;;13.20;11.90;;;;;;;16.76;100.00;99376.19;5112569;28;20695;-81
2022/06/04 04:00:45;;;;;;;12.80;11.60;;;;;;;16.76;100.00;99381.63;5113781;28;20294;-81
2022/06/04 04:03:15;;;;;;;11.68;10.15;;;;;;;16.96;100.00;99385.34;5113359;28;20200;-80
2022/06/04 04:05:48;;;;;;;13.85;10.57;;;;;;;17.19;100.00;99389.63;5113899;28;20194;-78
2022/06/04 04:08:15;;;;;;;10.68;8.82;;;;;;;17.20;100.00;99379.59;5113513;28;20226;-81
2022/06/04 04:10:45;;;;;;;11.45;10.40;;;;;;;17.09;100.00;99369.66;5110952;28;20235;-81
2022/06/04 04:13:12;;;;;;;11.25;10.20;;;;;;;16.83;100.00;99377.41;5112561;28;20714;-82
2022/06/04 04:15:40;;;;;;;14.23;11.60;;;;;;;16.82;100.00;99382.00;5113152;28;20191;-81
2022/06/04 04:18:08;;;;;;;12.15;10.95;;;;;;;16.86;100.00;99386.16;5113275;28;20716;-81
2022/06/04 04:20:37;;;;;;;11.98;10.80;;;;;;;16.80;100.00;99392.13;5113372;27;20216;-81
2022/06/04 04:23:06;;;;;;;15.68;11.55;;;;;;;16.86;100.00;99382.56;5113176;28;20297;-81
2022/06/04 04:25:33;;;;;;;10.70;9.68;;;;;;;16.79;100.00;99398.56;5113527;28;20206;-80
2022/06/04 04:28:03;;;;;;;11.65;10.43;;;;;;;16.85;100.00;99408.06;5113456;28;20574;-80
2022/06/04 04:30:33;;;;;;;12.48;11.27;;;;;;;17.03;100.00;99411.88;5113315;28;20597;-81
2022/06/04 04:33:00;;;;;;;11.13;10.00;;;;;;;17.26;100.00;99414.41;5112589;28;20196;-81
2022/06/04 04:35:29;;;;;;;11.60;10.00;;;;;;;17.04;100.00;99407.28;5112944;28;20312;-81
2022/06/04 04:37:56;;;;;;;11.15;10.10;;;;;;;17.04;100.00;99402.69;5112752;28;20291;-81
2022/06/04 04:40:25;;;;;;;11.70;10.45;;;;;;;16.96;100.00;99412.53;5113193;28;20618;-81
2022/06/04 04:42:52;;;;;;;11.50;10.32;;;;;;;17.09;100.00;99415.91;5112460;28;20208;-81
2022/06/04 04:45:22;;;;;;;11.57;10.55;;;;;;;17.03;100.00;99409.16;5112990;28;20201;-81
2022/06/04 04:47:50;;;;;;;11.70;10.60;;;;;;;17.07;100.00;99410.63;5112066;28;20191;-81
2022/06/04 04:50:20;;;;;;;11.15;9.82;;;;;;;17.13;100.00;99406.47;5112867;28;20590;-81
2022/06/04 04:52:47;;;;;;;15.57;11.35;;;;;;;17.21;100.00;99408.53;5112350;28;20279;-82
2022/06/04 04:55:14;;;;;;;12.48;11.27;;;;;;;17.23;100.00;99398.34;5112856;28;20177;-81
2022/06/04 04:57:41;;;;;;;11.52;10.10;;;;;;;17.08;100.00;99398.72;5112846;28;20675;-81
2022/06/04 05:00:10;;;;;;;18.20;10.50;;;;;;;17.13;100.00;99381.13;5111297;28;20196;-81
2022/06/04 05:02:38;;;;;;;11.20;10.10;;;;;;;17.30;100.00;99384.06;5112029;28;20189;-81
2022/06/04 05:05:06;;;;;;;10.52;9.52;;;;;;;17.39;100.00;99382.41;5110921;28;20206;-80
2022/06/04 05:07:33;;;;;;;11.23;10.10;;;;;;;17.57;100.00;99381.72;5091996;28;20278;-80
2022/06/04 05:10:00;;;;;;;10.93;9.57;;;;;;;17.69;100.00;99381.47;5094612;28;20293;-82
2022/06/04 05:12:27;;;;;;;10.05;9.15;;;;;;;17.59;100.00;99396.03;5111845;28;20248;-81
2022/06/04 05:14:53;;;;;;;11.95;10.68;;;;;;;17.78;100.00;99392.53;5111707;28;20194;-80
2022/06/04 05:17:20;;;;;;;9.88;9.00;;;;;;;17.82;100.00;99399.44;5112017;28;20329;-82
2022/06/04 05:19:49;;;;;;;11.38;9.98;;;;;;;17.83;100.00;99401.16;5112477;28;20236;-81
2022/06/04 05:22:16;;;;;;;11.80;10.80;;;;;;;17.88;100.00;99405.16;5112172;28;20615;-81
2022/06/04 05:24:43;;;;;;;10.43;9.32;;;;;;;17.97;100.00;99411.63;5111765;28;20266;-81
2022/06/04 05:27:10;;;;;;;11.40;10.40;;;;;;;18.31;100.00;99416.69;5112157;28;20657;-81
2022/06/04 05:29:37;;;;;;;12.82;9.93;;;;;;;18.46;100.00;99420.72;5112009;28;20602;-81
2022/06/04 05:32:05;;;;;;;12.75;10.32;;;;;;;18.54;100.00;99423.59;5112330;28;20191;-81
2022/06/04 05:34:32;;;;;;;13.07;10.75;;;;;;;18.62;100.00;99424.72;5111766;28;20285;-81
2022/06/04 05:37:02;;;;;;;10.65;9.55;;;;;;;18.83;100.00;99417.25;5112179;28;20625;-82
2022/06/04 05:39:31;;;;;;;10.50;9.50;;;;;;;18.81;100.00;99410.22;5112252;28;20195;-81
2022/06/04 05:41:58;;;;;;;11.00;9.70;;;;;;;18.85;100.00;99409.78;5112470;28;20879;-81
2022/06/04 05:44:26;;;;;;;11.60;10.50;;;;;;;18.89;100.00;99403.03;5109719;28;20207;-82
2022/06/04 05:46:52;;;;;;;13.07;11.77;;;;;;;18.63;100.00;99401.91;5100094;28;20656;-82
2022/06/04 05:49:20;;;;;;;12.93;11.35;;;;;;;18.48;100.00;99396.91;5098634;28;20229;-83
2022/06/04 05:51:48;;;;;;;13.67;12.37;;;;;;;18.36;100.00;99389.88;5112678;28;20294;-82
2022/06/04 05:54:16;;;;;;;14.95;13.07;;;;;;;18.34;100.00;99390.03;5111410;28;20521;-83
2022/06/04 05:56:46;;;;;;;15.05;13.45;;;;;;;18.33;100.00;99377.38;5107936;28;20274;-83
2022/06/04 05:59:15;;;;;;;16.73;15.03;;;;;;;18.25;100.00;99370.97;5092913;28;20572;-82
2022/06/04 06:01:44;;;;;;;17.23;15.43;;;;;;;18.38;100.00;99373.38;5092516;28;20508;-83
2022/06/04 06:04:13;;;;;;;16.92;15.20;;;;;;;18.26;100.00;99359.91;5092635;28;20904;-83
2022/06/04 06:06:43;;;;;;;17.05;15.40;;;;;;;18.50;100.00;99364.91;5111689;28;20285;-82
2022/06/04 06:09:12;;;;;;;15.93;14.32;;;;;;;18.47;100.00;99372.50;5112149;28;20624;-83
2022/06/04 06:11:40;;;;;;;15.07;13.57;;;;;;;18.65;100.00;99378.06;5127408;28;20278;-83
2022/06/04 06:14:08;;;;;;;14.47;12.97;;;;;;;18.95;100.00;99380.63;5111911;28;20434;-84
2022/06/04 06:16:36;;;;;;;15.10;13.53;;;;;;;19.16;100.00;99369.50;5112051;28;20808;-83
2022/06/04 06:19:03;;;;;;;18.77;16.77;;;;;;;19.24;100.00;99376.91;5112684;28;20421;-83
2022/06/04 06:21:32;;;;;;;12.80;11.57;;;;;;;19.28;100.00;99370.16;5114958;28;20543;-83
2022/06/04 06:23:59;;;;;;;13.50;12.10;;;;;;;18.94;100.00;99373.44;5117026;28;20476;-84
2022/06/04 06:26:29;;;;;;;10.87;9.77;;;;;;;19.14;100.00;99384.31;5116485;28;20435;-84
2022/06/04 06:28:59;;;;;;;10.98;9.88;;;;;;;19.56;100.00;99387.41;5115575;28;20428;-83
2022/06/04 06:31:28;;;;;;;10.33;9.40;;;;;;;19.62;100.00;99387.81;5115586;28;20332;-83
2022/06/04 06:33:55;;;;;;;10.00;9.10;;;;;;;19.68;100.00;99398.13;5115893;28;20892;-83
2022/06/04 06:36:22;;;;;;;11.87;10.30;;;;;;;19.87;100.00;99400.78;5116121;28;20591;-83
2022/06/04 06:38:50;;;;;;;11.83;9.47;;;;;;;20.00;100.00;99414.06;5114455;28;20532;-83
2022/06/04 06:41:18;;;;;;;11.03;10.03;;;;;;;19.56;100.00;99419.34;5114535;27;20436;-84
2022/06/04 06:43:46;;;;;;;9.80;8.90;;;;;;;19.45;100.00;99423.13;5114340;28;20536;-85
2022/06/04 06:46:17;;;;;;;10.67;9.50;;;;;;;19.06;100.00;99428.72;5112451;28;20927;-84
2022/06/04 06:48:46;;;;;;;14.27;10.93;;;;;;;18.74;100.00;99434.47;5094782;28;20424;-84
2022/06/04 06:51:16;;;;;;;11.47;9.50;;;;;;;18.94;100.00;99438.91;5109130;28;20937;-85
2022/06/04 06:53:42;;;;;;;10.98;9.95;;;;;;;19.07;100.00;99445.94;5114348;28;20425;-84
2022/06/04 06:56:11;;;;;;;9.47;8.57;;;;;;;19.54;100.00;99452.25;5114172;28;20243;-84
2022/06/04 06:58:37;;;;;;;9.80;8.90;;;;;;;19.56;100.00;99450.22;5114592;28;20508;-84
2022/06/04 07:01:04;;;;;;;10.50;9.50;;;;;;;19.51;100.00;99449.78;5114344;28;20520;-85
2022/06/04 07:03:32;;;;;;;9.30;8.40;;;;;;;19.46;100.00;99456.72;5114395;28;20485;-84
2022/06/04 07:05:59;;;;;;;10.43;9.50;;;;;;;19.47;100.00;99456.59;5113554;28;20544;-84
2022/06/04 07:08:27;;;;;;;9.93;8.90;;;;;;;19.69;100.00;99451.78;5114627;28;20455;-84
2022/06/04 07:10:54;;;;;;;10.30;9.40;;;;;;;19.71;100.00;99456.06;5114718;28;20513;-85
2022/06/04 07:13:21;;;;;;;14.23;9.60;;;;;;;19.88;100.00;99453.56;5114375;28;20799;-85
2022/06/04 07:15:49;;;;;;;10.17;9.20;;;;;;;19.90;100.00;99451.50;5114233;28;20516;-84
2022/06/04 07:18:16;;;;;;;9.97;8.97;;;;;;;20.13;100.00;99444.63;5113774;28;20954;-86
2022/06/04 07:20:44;;;;;;;10.67;9.57;;;;;;;20.48;100.00;99442.06;5114151;28;20917;-85
2022/06/04 07:23:12;;;;;;;9.80;8.23;;;;;;;20.58;100.00;99437.41;5114202;28;20919;-86
2022/06/04 07:25:41;;;;;;;10.50;9.50;;;;;;;20.56;100.00;99444.88;5114620;28;20481;-84
2022/06/04 07:28:08;;;;;;;9.73;8.93;;;;;;;20.66;100.00;99450.28;5114278;28;20441;-84
2022/06/04 07:30:35;;;;;;;10.23;9.23;;;;;;;20.60;100.00;99451.78;5114393;28;20996;-84
2022/06/04 07:33:02;;;;;;;9.80;8.90;;;;;;;20.63;100.00;99456.09;5113390;28;20524;-84
2022/06/04 07:35:29;;;;;;;9.87;9.00;;;;;;;20.66;100.00;99450.28;5114560;28;20445;-84
2022/06/04 07:37:57;;;;;;;10.40;9.40;;;;;;;20.60;100.00;99454.53;5114386;27;20875;-85
2022/06/04 07:40:23;;;;;;;11.03;9.80;;;;;;;20.54;100.00;99468.78;5115749;28;20433;-81
2022/06/04 07:42:50;;;;;;;11.83;8.83;;;;;;;20.56;100.00;99464.03;5118496;28;20892;-80
2022/06/04 07:45:17;;;;;;;15.03;11.57;;;;;;;20.35;100.00;99458.84;5118579;28;20567;-82
2022/06/04 07:47:45;;;;;;;11.37;10.37;;;;;;;20.06;100.00;99470.84;5118436;28;20496;-81
2022/06/04 07:50:14;;;;;;;9.43;8.63;;;;;;;19.99;100.00;99475.22;5118302;28;20452;-81
2022/06/04 07:52:40;;;;;;;12.63;9.30;;;;;;;20.17;100.00;99461.56;5117839;28;20504;-82
2022/06/04 07:55:10;;;;;;;10.83;9.90;;;;;;;20.26;100.00;99467.97;5118801;28;20517;-80
2022/06/04 07:57:38;;;;;;;12.03;10.93;;;;;;;20.28;100.00;99458.59;5116489;28;20417;-81
2022/06/04 08:00:07;;;;;;;10.87;9.97;;;;;;;20.12;100.00;99464.75;5115672;28;20884;-81
2022/06/04 08:02:33;;;;;;;11.73;10.63;;;;;;;19.99;100.00;99450.63;5116190;28;20464;-82
2022/06/04 08:05:00;;;;;;;12.43;11.13;;;;;;;20.25;100.00;99450.72;5116565;28;20677;-82
2022/06/04 08:07:28;;;;;;;10.80;9.80;;;;;;;20.53;100.00;99447.91;5117331;27;20501;-82
2022/06/04 08:09:55;;;;;;;10.90;9.90;;;;;;;21.02;100.00;99446.47;5118316;28;20826;-82
2022/06/04 08:12:23;;;;;;;10.50;9.63;;;;;;;21.45;100.00;99441.97;5117437;28;20504;-83
2022/06/04 08:14:50;;;;;;;10.07;9.07;;;;;;;21.55;100.00;99435.53;5116517;28;20471;-81
2022/06/04 08:17:17;;;;;;;10.47;9.40;;;;;;;21.40;100.00;99438.88;5114782;28;20556;-85
2022/06/04 08:19:43;;;;;;;10.13;9.00;;;;;;;21.67;100.00;99441.59;5113215;28;20516;-85
2022/06/04 08:22:11;;;;;;;10.90;9.77;;;;;;;21.82;100.00;99442.66;5113262;28;20426;-84
2022/06/04 08:24:37;;;;;;;9.53;8.73;;;;;;;21.60;100.00;99444.97;5112915;28;20556;-85
2022/06/04 08:27:05;;;;;;;10.67;9.70;;;;;;;21.37;100.00;99446.50;5113060;28;20440;-79
2022/06/04 08:29:35;;;;;;;11.83;10.63;;;;;;;21.79;100.00;99451.22;5113016;28;20514;-80
2022/06/04 08:32:03;;;;;;;10.33;9.43;;;;;;;22.35;100.00;99462.56;5112552;28;20479;-85
2022/06/04 08:34:31;;;;;;;14.87;10.60;;;;;;;22.14;100.00;99461.13;5113191;28;20465;-85
2022/06/04 08:36:58;;;;;;;10.33;9.33;;;;;;;22.79;100.00;99465.00;5112863;28;20434;-86
2022/06/04 08:39:25;;;;;;;11.10;10.10;;;;;;;22.82;100.00;99473.78;5113098;28;21139;-85
2022/06/04 08:42:18;;;;;;;11.23;10.30;;;;;;;22.71;100.00;99487.84;5112939;28;20437;-85
2022/06/04 08:44:49;;;;;;;12.77;11.10;;;;;;;22.82;100.00;99500.38;5111836;28;20472;-86
2022/06/04 08:47:18;;;;;;;12.03;10.93;;;;;;;22.90;100.00;99501.22;5112324;28;20421;-86
2022/06/04 08:49:49;;;;;;;11.23;10.10;;;;;;;22.56;100.00;99506.00;5112502;28;20519;-85
2022/06/04 08:52:20;;;;;;;11.33;10.23;;;;;;;21.87;100.00;99503.34;5112247;28;20449;-85
2022/06/04 08:57:46;;;;;;;14.07;12.77;;;;;;;22.49;100.00;99506.66;5112496;28;20539;-85
2022/06/04 09:00:20;;;;;;;12.57;11.37;;;;;;;22.67;100.00;99506.50;5112450;28;20826;-87
2022/06/04 09:03:01;;;;;;;12.37;11.20;;;;;;;22.95;100.00;99503.47;5112236;28;20465;-86
2022/06/04 09:05:39;;;;;;;12.53;11.33;;;;;;;23.40;100.00;99510.31;5112539;28;20807;-85
2022/06/04 09:08:13;;;;;;;11.37;10.23;;;;;;;23.33;100.00;99514.78;5112823;28;20536;-86
2022/06/04 09:10:45;;;;;;;12.03;11.03;;;;;;;23.70;99.00;99522.47;5112404;28;20860;-86
2022/06/04 09:13:18;;;;;;;12.23;11.00;;;;;;;23.61;97.83;99533.66;5112289;28;20500;-86
2022/06/04 09:15:51;;;;;;;11.57;10.47;;;;;;;23.53;98.68;99535.38;5113049;28;20492;-86
2022/06/04 09:18:24;;;;;;;12.03;11.03;;;;;;;23.55;97.55;99535.19;5111761;28;21000;-86
2022/06/04 09:20:55;;;;;;;11.20;10.20;;;;;;;23.64;96.03;99527.81;5112019;28;20418;-86
2022/06/04 09:23:29;;;;;;;11.10;10.20;;;;;;;24.06;92.92;99522.03;5112400;28;20526;-86
2022/06/04 09:26:00;;;;;;;11.80;10.60;;;;;;;23.72;94.29;99525.00;5112805;28;20453;-86
2022/06/04 09:28:39;;;;;;;13.43;12.13;;;;;;;23.95;93.55;99519.69;5112439;28;20516;-86
2022/06/04 09:31:20;;;;;;;12.20;11.10;;;;;;;23.96;94.76;99526.03;5112872;28;20429;-86
2022/06/04 09:33:56;;;;;;;12.23;11.23;;;;;;;23.96;93.26;99521.38;5112045;28;20457;-86
2022/06/04 09:36:27;;;;;;;11.73;10.80;;;;;;;23.99;93.42;99520.16;5112545;28;20907;-86
2022/06/04 09:38:56;;;;;;;11.60;10.60;;;;;;;23.97;92.07;99528.59;5112480;28;20436;-86
2022/06/04 09:41:26;;;;;;;12.00;10.97;;;;;;;23.67;95.83;99530.19;5112039;28;20512;-88
2022/06/04 09:44:07;;;;;;;12.23;11.20;;;;;;;23.52;96.36;99519.94;5112217;28;20429;-86
2022/06/04 09:46:36;;;;;;;10.03;9.13;;;;;;;23.76;95.00;99525.56;5112247;28;20958;-88
2022/06/04 09:49:14;;;;;;;12.07;10.97;;;;;;;24.02;92.72;99525.31;5112439;28;20882;-86
2022/06/04 09:51:43;;;;;;;10.83;9.90;;;;;;;24.14;90.93;99527.47;5112338;28;20496;-85
2022/06/04 09:54:23;;;;;;;11.43;10.40;;;;;;;24.28;89.28;99525.03;5112773;28;20519;-86
2022/06/04 09:56:53;;;;;;;11.60;10.43;;;;;;;23.83;92.20;99527.41;5115789;28;20425;-87
2022/06/04 09:59:24;;;;;;;11.77;10.67;;;;;;;23.88;92.95;99521.44;5116099;28;20858;-85
2022/06/04 10:01:57;;;;;;;12.50;11.30;;;;;;;23.76;93.60;99520.91;5115772;28;20421;-87
2022/06/04 10:04:36;;;;;;;12.60;11.47;;;;;;;23.46;95.29;99520.63;5116271;27;20765;-87
2022/06/04 10:07:07;;;;;;;12.97;11.63;;;;;;;23.47;96.72;99516.84;5115766;28;20464;-87
2022/06/04 10:15:24;;;;;;;12.10;10.90;;;;;;;24.08;92.53;99516.34;5116330;28;20409;-85
2022/06/04 10:18:06;;;;;;;11.07;10.00;;;;;;;24.04;91.87;99517.75;5115230;28;20479;-86
2022/06/04 10:20:33;;;;;;;11.67;10.57;;;;;;;24.24;90.94;99513.53;5115817;28;20441;-85
2022/06/04 10:23:00;;;;;;;10.63;9.73;;;;;;;24.48;88.98;99515.31;5116015;28;20913;-86
2022/06/04 10:25:39;;;;;;;11.93;10.40;;;;;;;24.37;89.43;99512.94;5115640;28;20546;-85
2022/06/04 10:28:18;;;;;;;9.57;8.57;;;;;;;24.50;88.27;99512.38;5115637;28;20937;-85
2022/06/04 10:30:52;;;;;;;11.20;10.10;;;;;;;24.69;87.40;99505.53;5116085;28;20841;-87
2022/06/04 10:33:31;;;;;;;12.53;11.23;;;;;;;24.66;89.82;99494.91;5115993;28;20909;-86
2022/06/04 10:36:21;;;;;;;11.03;9.97;;;;;;;24.59;90.02;99511.28;5115603;28;20518;-86
2022/06/04 10:39:00;;;;;;;9.77;8.97;;;;;;;24.58;92.03;99504.09;5115082;28;20918;-86
2022/06/04 10:41:37;;;;;;;10.87;9.97;;;;;;;24.77;89.79;99503.59;5115465;28;20939;-85
2022/06/04 10:44:29;;;;;;;10.50;9.60;;;;;;;24.68;91.37;99504.69;5114967;28;20431;-87
2022/06/04 10:47:07;;;;;;;11.27;9.90;;;;;;;24.74;91.94;99505.88;5115050;28;20548;-86
2022/06/04 10:50:06;;;;;;;11.80;10.80;;;;;;;24.74;91.57;99505.88;5115047;28;20468;-86
2022/06/04 10:52:39;;;;;;;9.43;8.57;;;;;;;24.41;89.97;99508.78;5111839;28;21015;-85
2022/06/04 10:55:13;;;;;;;10.40;9.40;;;;;;;24.16;93.92;99499.81;5115288;28;20443;-85
2022/06/04 10:57:50;;;;;;;9.83;9.00;;;;;;;24.17;95.53;99507.00;5114889;28;20508;-85
2022/06/04 11:00:19;;;;;;;11.83;10.67;;;;;;;24.27;96.38;99499.41;5115067;28;20953;-85
2022/06/04 11:02:53;;;;;;;10.07;9.17;;;;;;;24.83;91.05;99484.63;5114318;28;20524;-86
2022/06/04 11:05:26;;;;;;;11.73;10.53;;;;;;;25.18;86.23;99478.50;5114598;28;20414;-86
2022/06/04 11:08:00;;;;;;;8.23;7.50;;;;;;;25.03;85.55;99469.31;5114111;28;20504;-85
2022/06/04 11:10:31;;;;;;;9.93;8.77;;;;;;;24.75;89.90;99467.13;5114631;28;20477;-87
2022/06/04 11:13:04;;;;;;;9.70;8.37;;;;;;;24.93;88.97;99464.06;5114535;28;20501;-86
2022/06/04 11:15:36;;;;;;;11.10;8.80;;;;;;;24.97;88.56;99459.91;5114589;28;20502;-86
2022/06/04 11:18:12;;;;;;;8.17;7.57;;;;;;;24.89;87.52;99462.72;5114170;28;20488;-86
2022/06/04 11:20:46;;;;;;;8.07;7.37;;;;;;;24.83;87.64;99451.56;5114614;28;20816;-86
2022/06/04 11:23:26;;;;;;;8.90;8.10;;;;;;;24.89;87.95;99451.69;5114126;28;20553;-86
2022/06/04 11:25:58;;;;;;;8.53;7.73;;;;;;;25.28;85.28;99463.59;5113827;28;20468;-86
2022/06/04 11:28:27;;;;;;;8.07;7.20;;;;;;;25.23;84.22;99463.31;5114364;28;20501;-86
2022/06/04 11:31:08;;;;;;;9.20;7.27;;;;;;;24.95;81.76;99463.88;5114795;28;20548;-86
2022/06/04 11:33:47;;;;;;;7.07;6.37;;;;;;;25.31;79.73;99471.50;5114158;28;20891;-86
2022/06/04 11:36:24;;;;;;;8.10;7.30;;;;;;;25.12;81.75;99473.72;5113958;28;20504;-85
2022/06/04 11:39:03;;;;;;;7.07;6.37;;;;;;;25.03;83.46;99468.44;5114097;28;20420;-86
2022/06/04 11:41:40;;;;;;;6.40;5.90;;;;;;;24.97;82.36;99459.91;5113584;28;20532;-86
2022/06/04 11:44:46;;;;;;;6.13;5.63;;;;;;;24.91;82.21;99460.63;5113901;28;20907;-85
2022/06/04 11:47:22;;;;;;;7.30;6.70;;;;;;;25.14;81.69;99460.59;5090616;28;20568;-86